Flushing, NY (11381)

8:40 PM EDT on August 30, 2014 (GMT -0400)
Middle Village Juniper Valley Park | Change Station
CLOSE
Current Station
Personal Weather Station
Location: Queens, NY
Elevation: 108 ft
Nearby Weather Stations

Elev 108 ft 40.72 °N, 73.89 °W | Updated 4 seconds ago

Overcast
Overcast
73.2 °F
Feels Like 73 °F
N
6.0
Wind Variable Wind from SSW
Gusts 15.0 mph

Today
High -- | Low -- °F
--% Chance of Precip.
Yesterday
High -- | Low -- °F
Precip. -- in
6:20 AM 7:30 PM
Waxing Crescent, 26% visible
Pressure 30.15 in
Visibility 10.0 miles
Clouds Few 2200 ft
Mostly Cloudy 3900 ft
Overcast 5000 ft
Heat Index 73 °F
Dew Point 67 °F
Humidity 82%
Rainfall 0.00 in
Snow Depth Not available.
UV 0 out of 12
Pollen 8.90 out of 12
Air Quality Not available.
Flu Activity Not available.
METAR KLGA 302351Z 18012G17KT 10SM FEW022 BKN039 OVC050 23/18 A3015 RMK AO2 SLP210 T02330183 10250 20233 56007 $

More Conditions Fewer Conditions

Pressure 30.15 in
Visibility 10.0 miles
Clouds Few 2200 ft
Mostly Cloudy 3900 ft
Overcast 5000 ft
Heat Index 73 °F
Dew Point 67 °F
Humidity 82%
Rainfall 0.00 in
Snow Depth Not available.
UV 0 out of 12
Pollen 8.90 out of 12
Air Quality Not available.
Flu Activity Not available.
METAR KLGA 302351Z 18012G17KT 10SM FEW022 BKN039 OVC050 23/18 A3015 RMK AO2 SLP210 T02330183 10250 20233 56007 $

More Conditions Fewer Conditions

10-Day Weather Forecast

Almanac

Astronomy

Aug. 30, 2014 Rise Set
Actual Time 6:20 AM EDT 7:30 PM EDT
Civil Twilight 5:52 AM EDT 7:59 PM EDT
Nautical Twilight 5:18 AM EDT 8:32 PM EDT
Astronomical Twilight 4:43 AM EDT 9:07 PM EDT
Moon 11:07 AM EDT (8/30) 10:01 PM EDT (8/30)
Length of Visible Light 14h 06m
Length of Day
13h 10m
Tomorrow will be 2m 35s shorter.
Waxing Crescent, 26% of the Moon is Illuminated
Today
Waxing Crescent
Sep 2
First Quarter
Sep 8
Full
Sep 15
Last Quarter
Sep 24
New

Today's Extremes

State Highs State Lows

Community

WunderPhotos

Upload Photos

1,748,705 photos uploaded!

Nearby

Snow Depth

Station Depth Elevation
No new snow has been reported.

Earthquake Activity

City Distance Mag. Time & Date
No recent earthquake activity has been reported nearby.
Minimum magnitude displayed is 2.5.

Coastal Water Temperatures

Place Temperature
Sandy Hook, NJ 75.0 °F
The Battery, NY 73.9 °F
Bergen Point West Reach, NJ 75.0 °F
Kings Point, NY 73.0 °F

Nearby Weather Stations